sensor_id;sensor_type;location;lat;lon;timestamp;P1;durP1;ratioP1;P2;durP2;ratioP2
19867;SDS011;10096;51.112;6.776;2022-09-29T00:01:26;12.20;;;6.83;;
19867;SDS011;10096;51.112;6.776;2022-09-29T00:03:52;7.33;;;6.63;;
19867;SDS011;10096;51.112;6.776;2022-09-29T00:06:19;7.80;;;6.50;;
19867;SDS011;10096;51.112;6.776;2022-09-29T00:08:46;8.73;;;6.43;;
19867;SDS011;10096;51.112;6.776;2022-09-29T00:11:14;6.80;;;6.03;;
19867;SDS011;10096;51.112;6.776;2022-09-29T00:13:43;8.97;;;6.57;;
19867;SDS011;10096;51.112;6.776;2022-09-29T00:16:12;7.47;;;6.77;;
19867;SDS011;10096;51.112;6.776;2022-09-29T00:18:39;7.83;;;6.97;;
19867;SDS011;10096;51.112;6.776;2022-09-29T00:21:08;8.03;;;7.23;;
19867;SDS011;10096;51.112;6.776;2022-09-29T00:23:37;7.00;;;6.27;;
19867;SDS011;10096;51.112;6.776;2022-09-29T00:26:05;7.97;;;7.27;;
19867;SDS011;10096;51.112;6.776;2022-09-29T00:28:44;7.80;;;7.03;;
19867;SDS011;10096;51.112;6.776;2022-09-29T00:31:19;8.40;;;6.30;;
19867;SDS011;10096;51.112;6.776;2022-09-29T00:33:46;7.50;;;6.23;;
19867;SDS011;10096;51.112;6.776;2022-09-29T00:36:14;8.77;;;6.63;;
19867;SDS011;10096;51.112;6.776;2022-09-29T00:38:43;7.47;;;6.53;;
19867;SDS011;10096;51.112;6.776;2022-09-29T00:41:12;6.83;;;6.23;;
19867;SDS011;10096;51.112;6.776;2022-09-29T00:43:53;8.87;;;6.83;;
19867;SDS011;10096;51.112;6.776;2022-09-29T00:46:25;7.30;;;6.60;;
19867;SDS011;10096;51.112;6.776;2022-09-29T00:48:57;8.60;;;6.70;;
19867;SDS011;10096;51.112;6.776;2022-09-29T00:51:28;10.00;;;7.57;;
19867;SDS011;10096;51.112;6.776;2022-09-29T00:53:58;6.73;;;6.10;;
19867;SDS011;10096;51.112;6.776;2022-09-29T00:56:27;6.77;;;6.13;;
19867;SDS011;10096;51.112;6.776;2022-09-29T00:58:56;7.00;;;6.30;;
19867;SDS011;10096;51.112;6.776;2022-09-29T01:01:29;7.00;;;6.37;;
19867;SDS011;10096;51.112;6.776;2022-09-29T01:03:58;6.83;;;6.23;;
19867;SDS011;10096;51.112;6.776;2022-09-29T01:06:29;8.07;;;6.10;;
19867;SDS011;10096;51.112;6.776;2022-09-29T01:09:00;6.50;;;5.77;;
19867;SDS011;10096;51.112;6.776;2022-09-29T01:11:29;7.93;;;6.43;;
19867;SDS011;10096;51.112;6.776;2022-09-29T01:13:57;6.60;;;5.87;;
19867;SDS011;10096;51.112;6.776;2022-09-29T01:16:29;6.37;;;5.87;;
19867;SDS011;10096;51.112;6.776;2022-09-29T01:18:57;6.43;;;5.83;;
19867;SDS011;10096;51.112;6.776;2022-09-29T01:21:28;8.27;;;6.63;;
19867;SDS011;10096;51.112;6.776;2022-09-29T01:24:07;8.20;;;6.53;;
19867;SDS011;10096;51.112;6.776;2022-09-29T01:27:00;9.60;;;7.30;;
19867;SDS011;10096;51.112;6.776;2022-09-29T01:29:52;8.97;;;6.40;;
19867;SDS011;10096;51.112;6.776;2022-09-29T01:32:42;7.57;;;6.87;;
19867;SDS011;10096;51.112;6.776;2022-09-29T01:35:24;8.53;;;6.97;;
19867;SDS011;10096;51.112;6.776;2022-09-29T01:37:58;7.73;;;6.57;;
19867;SDS011;10096;51.112;6.776;2022-09-29T01:40:34;9.90;;;7.07;;
19867;SDS011;10096;51.112;6.776;2022-09-29T01:43:10;7.43;;;6.70;;
19867;SDS011;10096;51.112;6.776;2022-09-29T01:45:43;10.63;;;7.77;;
19867;SDS011;10096;51.112;6.776;2022-09-29T01:48:18;9.43;;;7.43;;
19867;SDS011;10096;51.112;6.776;2022-09-29T01:50:51;10.97;;;7.20;;
19867;SDS011;10096;51.112;6.776;2022-09-29T01:53:22;7.20;;;6.50;;
19867;SDS011;10096;51.112;6.776;2022-09-29T01:55:55;7.00;;;6.40;;
19867;SDS011;10096;51.112;6.776;2022-09-29T01:58:29;8.37;;;7.27;;
19867;SDS011;10096;51.112;6.776;2022-09-29T02:01:01;8.40;;;7.60;;
19867;SDS011;10096;51.112;6.776;2022-09-29T02:03:36;8.20;;;7.40;;
19867;SDS011;10096;51.112;6.776;2022-09-29T02:06:11;8.77;;;7.53;;
19867;SDS011;10096;51.112;6.776;2022-09-29T02:08:41;9.63;;;7.50;;
19867;SDS011;10096;51.112;6.776;2022-09-29T02:11:12;8.37;;;7.20;;
19867;SDS011;10096;51.112;6.776;2022-09-29T02:13:47;10.53;;;7.87;;
19867;SDS011;10096;51.112;6.776;2022-09-29T02:16:18;8.63;;;7.73;;
19867;SDS011;10096;51.112;6.776;2022-09-29T02:18:51;5.83;;;5.33;;
19867;SDS011;10096;51.112;6.776;2022-09-29T02:21:20;6.80;;;6.10;;
19867;SDS011;10096;51.112;6.776;2022-09-29T02:23:47;7.70;;;7.00;;
19867;SDS011;10096;51.112;6.776;2022-09-29T02:26:15;8.40;;;6.57;;
19867;SDS011;10096;51.112;6.776;2022-09-29T02:28:44;7.67;;;6.73;;
19867;SDS011;10096;51.112;6.776;2022-09-29T02:31:12;7.67;;;6.63;;
19867;SDS011;10096;51.112;6.776;2022-09-29T02:33:39;8.07;;;7.27;;
19867;SDS011;10096;51.112;6.776;2022-09-29T02:36:11;7.90;;;7.10;;
19867;SDS011;10096;51.112;6.776;2022-09-29T02:38:50;10.37;;;7.47;;
19867;SDS011;10096;51.112;6.776;2022-09-29T02:41:27;12.03;;;8.10;;
19867;SDS011;10096;51.112;6.776;2022-09-29T02:44:38;9.57;;;7.03;;
19867;SDS011;10096;51.112;6.776;2022-09-29T02:47:20;8.43;;;7.47;;
19867;SDS011;10096;51.112;6.776;2022-09-29T02:50:13;16.53;;;8.77;;
19867;SDS011;10096;51.112;6.776;2022-09-29T02:53:06;41.10;;;10.47;;
19867;SDS011;10096;51.112;6.776;2022-09-29T02:55:43;9.37;;;8.00;;
19867;SDS011;10096;51.112;6.776;2022-09-29T02:58:25;14.53;;;8.27;;
19867;SDS011;10096;51.112;6.776;2022-09-29T03:01:02;9.20;;;7.57;;
19867;SDS011;10096;51.112;6.776;2022-09-29T03:03:29;12.53;;;8.43;;
19867;SDS011;10096;51.112;6.776;2022-09-29T03:05:57;9.13;;;8.00;;
19867;SDS011;10096;51.112;6.776;2022-09-29T03:08:26;9.60;;;8.53;;
19867;SDS011;10096;51.112;6.776;2022-09-29T03:10:58;13.97;;;8.83;;
19867;SDS011;10096;51.112;6.776;2022-09-29T03:13:25;12.03;;;9.63;;
19867;SDS011;10096;51.112;6.776;2022-09-29T03:15:53;24.63;;;10.00;;
19867;SDS011;10096;51.112;6.776;2022-09-29T03:18:19;11.77;;;9.03;;
19867;SDS011;10096;51.112;6.776;2022-09-29T03:20:49;12.50;;;9.20;;
19867;SDS011;10096;51.112;6.776;2022-09-29T03:23:22;26.43;;;11.47;;
19867;SDS011;10096;51.112;6.776;2022-09-29T03:25:51;24.80;;;11.70;;
19867;SDS011;10096;51.112;6.776;2022-09-29T03:28:19;41.83;;;11.97;;
19867;SDS011;10096;51.112;6.776;2022-09-29T03:30:46;38.00;;;11.27;;
19867;SDS011;10096;51.112;6.776;2022-09-29T03:33:13;38.00;;;10.07;;
19867;SDS011;10096;51.112;6.776;2022-09-29T03:35:46;13.77;;;9.77;;
19867;SDS011;10096;51.112;6.776;2022-09-29T03:38:13;12.03;;;8.57;;
19867;SDS011;10096;51.112;6.776;2022-09-29T03:40:40;10.13;;;9.00;;
19867;SDS011;10096;51.112;6.776;2022-09-29T03:43:09;10.27;;;8.83;;
19867;SDS011;10096;51.112;6.776;2022-09-29T03:45:35;10.07;;;9.07;;
19867;SDS011;10096;51.112;6.776;2022-09-29T03:48:03;12.57;;;9.53;;
19867;SDS011;10096;51.112;6.776;2022-09-29T03:50:30;10.47;;;9.27;;
19867;SDS011;10096;51.112;6.776;2022-09-29T03:52:58;11.00;;;9.30;;
19867;SDS011;10096;51.112;6.776;2022-09-29T03:55:26;10.37;;;9.27;;
19867;SDS011;10096;51.112;6.776;2022-09-29T03:57:53;12.30;;;9.20;;
19867;SDS011;10096;51.112;6.776;2022-09-29T04:00:23;10.33;;;9.10;;
19867;SDS011;10096;51.112;6.776;2022-09-29T04:02:52;9.77;;;8.37;;
19867;SDS011;10096;51.112;6.776;2022-09-29T04:05:20;9.83;;;8.83;;
19867;SDS011;10096;51.112;6.776;2022-09-29T04:07:47;10.10;;;9.07;;
19867;SDS011;10096;51.112;6.776;2022-09-29T04:10:20;9.73;;;8.53;;
19867;SDS011;10096;51.112;6.776;2022-09-29T04:12:48;10.80;;;9.67;;
19867;SDS011;10096;51.112;6.776;2022-09-29T04:15:15;11.40;;;9.33;;
19867;SDS011;10096;51.112;6.776;2022-09-29T04:17:45;10.63;;;8.73;;
19867;SDS011;10096;51.112;6.776;2022-09-29T04:20:12;10.73;;;9.33;;
19867;SDS011;10096;51.112;6.776;2022-09-29T04:22:39;10.93;;;9.90;;
19867;SDS011;10096;51.112;6.776;2022-09-29T04:25:08;11.57;;;10.30;;
19867;SDS011;10096;51.112;6.776;2022-09-29T04:27:36;12.93;;;10.23;;
19867;SDS011;10096;51.112;6.776;2022-09-29T04:30:06;10.67;;;9.57;;
19867;SDS011;10096;51.112;6.776;2022-09-29T04:32:34;10.40;;;8.83;;
19867;SDS011;10096;51.112;6.776;2022-09-29T04:35:02;10.00;;;9.00;;
19867;SDS011;10096;51.112;6.776;2022-09-29T04:37:30;11.00;;;9.07;;
19867;SDS011;10096;51.112;6.776;2022-09-29T04:39:57;13.63;;;9.53;;
19867;SDS011;10096;51.112;6.776;2022-09-29T04:42:27;11.27;;;9.97;;
19867;SDS011;10096;51.112;6.776;2022-09-29T04:45:01;11.57;;;9.73;;
19867;SDS011;10096;51.112;6.776;2022-09-29T04:47:36;10.60;;;9.50;;
19867;SDS011;10096;51.112;6.776;2022-09-29T04:50:08;16.43;;;11.13;;
19867;SDS011;10096;51.112;6.776;2022-09-29T04:52:41;10.77;;;9.60;;
19867;SDS011;10096;51.112;6.776;2022-09-29T04:55:09;12.07;;;10.70;;
19867;SDS011;10096;51.112;6.776;2022-09-29T04:57:46;12.43;;;11.13;;
19867;SDS011;10096;51.112;6.776;2022-09-29T05:00:17;13.50;;;11.10;;
19867;SDS011;10096;51.112;6.776;2022-09-29T05:02:45;12.77;;;10.33;;
19867;SDS011;10096;51.112;6.776;2022-09-29T05:05:14;14.67;;;9.83;;
19867;SDS011;10096;51.112;6.776;2022-09-29T05:07:44;11.07;;;9.97;;
19867;SDS011;10096;51.112;6.776;2022-09-29T05:10:12;11.30;;;10.13;;
19867;SDS011;10096;51.112;6.776;2022-09-29T05:12:39;11.20;;;10.10;;
19867;SDS011;10096;51.112;6.776;2022-09-29T05:15:06;11.67;;;10.47;;
19867;SDS011;10096;51.112;6.776;2022-09-29T05:17:34;11.00;;;9.83;;
19867;SDS011;10096;51.112;6.776;2022-09-29T05:20:01;12.77;;;10.00;;
19867;SDS011;10096;51.112;6.776;2022-09-29T05:22:30;9.90;;;8.83;;
19867;SDS011;10096;51.112;6.776;2022-09-29T05:24:57;11.20;;;9.23;;
19867;SDS011;10096;51.112;6.776;2022-09-29T05:27:24;11.50;;;9.47;;
19867;SDS011;10096;51.112;6.776;2022-09-29T05:29:51;10.63;;;9.53;;
19867;SDS011;10096;51.112;6.776;2022-09-29T05:32:18;13.73;;;10.43;;
19867;SDS011;10096;51.112;6.776;2022-09-29T05:34:45;10.70;;;9.60;;
19867;SDS011;10096;51.112;6.776;2022-09-29T05:37:14;11.53;;;10.33;;
19867;SDS011;10096;51.112;6.776;2022-09-29T05:39:44;11.27;;;10.17;;
19867;SDS011;10096;51.112;6.776;2022-09-29T05:42:14;11.97;;;10.10;;
19867;SDS011;10096;51.112;6.776;2022-09-29T05:44:41;11.67;;;9.73;;
19867;SDS011;10096;51.112;6.776;2022-09-29T05:47:09;13.10;;;10.53;;
19867;SDS011;10096;51.112;6.776;2022-09-29T05:49:36;11.13;;;10.03;;
19867;SDS011;10096;51.112;6.776;2022-09-29T05:52:03;11.60;;;9.60;;
19867;SDS011;10096;51.112;6.776;2022-09-29T05:54:30;10.80;;;9.70;;
19867;SDS011;10096;51.112;6.776;2022-09-29T05:56:58;12.50;;;10.97;;
19867;SDS011;10096;51.112;6.776;2022-09-29T05:59:28;12.60;;;11.00;;
19867;SDS011;10096;51.112;6.776;2022-09-29T06:01:55;11.03;;;9.63;;
19867;SDS011;10096;51.112;6.776;2022-09-29T06:04:22;10.77;;;9.57;;
19867;SDS011;10096;51.112;6.776;2022-09-29T06:06:49;11.97;;;10.23;;
19867;SDS011;10096;51.112;6.776;2022-09-29T06:09:19;10.37;;;9.10;;
19867;SDS011;10096;51.112;6.776;2022-09-29T06:11:46;11.43;;;9.30;;
19867;SDS011;10096;51.112;6.776;2022-09-29T06:14:15;11.00;;;9.80;;
19867;SDS011;10096;51.112;6.776;2022-09-29T06:16:42;11.73;;;10.37;;
19867;SDS011;10096;51.112;6.776;2022-09-29T06:19:09;10.90;;;9.83;;
19867;SDS011;10096;51.112;6.776;2022-09-29T06:21:37;10.70;;;9.37;;
19867;SDS011;10096;51.112;6.776;2022-09-29T06:24:05;10.37;;;8.37;;
19867;SDS011;10096;51.112;6.776;2022-09-29T06:26:32;10.33;;;8.43;;
19867;SDS011;10096;51.112;6.776;2022-09-29T06:28:59;11.77;;;9.43;;
19867;SDS011;10096;51.112;6.776;2022-09-29T06:31:29;11.07;;;9.33;;
19867;SDS011;10096;51.112;6.776;2022-09-29T06:33:56;8.82;;;7.85;;
19867;SDS011;10096;51.112;6.776;2022-09-29T06:36:26;7.50;;;6.78;;
19867;SDS011;10096;51.112;6.776;2022-09-29T06:39:14;7.45;;;6.40;;
19867;SDS011;10096;51.112;6.776;2022-09-29T06:41:42;7.63;;;6.88;;
19867;SDS011;10096;51.112;6.776;2022-09-29T06:44:12;9.88;;;8.00;;
19867;SDS011;10096;51.112;6.776;2022-09-29T06:46:41;6.78;;;6.03;;
19867;SDS011;10096;51.112;6.776;2022-09-29T06:49:09;7.07;;;6.25;;
19867;SDS011;10096;51.112;6.776;2022-09-29T06:51:39;7.10;;;6.40;;
19867;SDS011;10096;51.112;6.776;2022-09-29T06:54:08;7.30;;;6.60;;
19867;SDS011;10096;51.112;6.776;2022-09-29T06:56:35;7.35;;;6.75;;
19867;SDS011;10096;51.112;6.776;2022-09-29T06:59:02;7.60;;;6.72;;
19867;SDS011;10096;51.112;6.776;2022-09-29T07:01:29;6.70;;;6.10;;
19867;SDS011;10096;51.112;6.776;2022-09-29T07:04:00;6.90;;;6.28;;
19867;SDS011;10096;51.112;6.776;2022-09-29T07:06:30;7.43;;;6.18;;
19867;SDS011;10096;51.112;6.776;2022-09-29T07:09:00;7.03;;;6.32;;
19867;SDS011;10096;51.112;6.776;2022-09-29T07:11:34;7.47;;;5.93;;
19867;SDS011;10096;51.112;6.776;2022-09-29T07:14:03;9.60;;;6.25;;
19867;SDS011;10096;51.112;6.776;2022-09-29T07:16:31;15.05;;;13.55;;
19867;SDS011;10096;51.112;6.776;2022-09-29T07:18:59;6.90;;;6.10;;
19867;SDS011;10096;51.112;6.776;2022-09-29T07:21:26;6.88;;;6.28;;
19867;SDS011;10096;51.112;6.776;2022-09-29T07:23:53;8.38;;;6.35;;
19867;SDS011;10096;51.112;6.776;2022-09-29T07:26:20;6.30;;;5.80;;
19867;SDS011;10096;51.112;6.776;2022-09-29T07:28:47;7.43;;;5.70;;
19867;SDS011;10096;51.112;6.776;2022-09-29T07:31:29;6.28;;;5.68;;
19867;SDS011;10096;51.112;6.776;2022-09-29T07:33:56;7.70;;;6.80;;
19867;SDS011;10096;51.112;6.776;2022-09-29T07:36:25;17.02;;;14.65;;
19867;SDS011;10096;51.112;6.776;2022-09-29T07:38:52;11.32;;;10.02;;
19867;SDS011;10096;51.112;6.776;2022-09-29T07:41:20;7.20;;;6.50;;
19867;SDS011;10096;51.112;6.776;2022-09-29T07:43:48;7.70;;;7.00;;
19867;SDS011;10096;51.112;6.776;2022-09-29T07:46:15;8.85;;;6.70;;
19867;SDS011;10096;51.112;6.776;2022-09-29T07:48:42;8.40;;;7.38;;
19867;SDS011;10096;51.112;6.776;2022-09-29T07:51:10;7.78;;;6.57;;
19867;SDS011;10096;51.112;6.776;2022-09-29T07:53:41;8.50;;;7.75;;
19867;SDS011;10096;51.112;6.776;2022-09-29T07:56:09;8.65;;;7.47;;
19867;SDS011;10096;51.112;6.776;2022-09-29T07:58:37;7.50;;;6.80;;
19867;SDS011;10096;51.112;6.776;2022-09-29T08:01:05;8.32;;;7.18;;
19867;SDS011;10096;51.112;6.776;2022-09-29T08:03:36;8.07;;;7.30;;
19867;SDS011;10096;51.112;6.776;2022-09-29T08:06:04;9.00;;;8.18;;
19867;SDS011;10096;51.112;6.776;2022-09-29T08:08:33;9.05;;;8.15;;
19867;SDS011;10096;51.112;6.776;2022-09-29T08:11:03;10.48;;;9.02;;
19867;SDS011;10096;51.112;6.776;2022-09-29T08:13:32;9.52;;;8.45;;
19867;SDS011;10096;51.112;6.776;2022-09-29T08:16:05;10.05;;;9.10;;
19867;SDS011;10096;51.112;6.776;2022-09-29T08:18:34;11.30;;;9.73;;
19867;SDS011;10096;51.112;6.776;2022-09-29T08:21:03;12.77;;;10.30;;
19867;SDS011;10096;51.112;6.776;2022-09-29T08:23:34;10.93;;;9.90;;
19867;SDS011;10096;51.112;6.776;2022-09-29T08:26:04;11.20;;;10.02;;
19867;SDS011;10096;51.112;6.776;2022-09-29T08:28:34;12.15;;;10.85;;
19867;SDS011;10096;51.112;6.776;2022-09-29T08:31:02;11.77;;;10.57;;
19867;SDS011;10096;51.112;6.776;2022-09-29T08:33:29;12.50;;;11.30;;
19867;SDS011;10096;51.112;6.776;2022-09-29T08:35:57;12.48;;;11.23;;
19867;SDS011;10096;51.112;6.776;2022-09-29T08:38:25;12.20;;;10.55;;
19867;SDS011;10096;51.112;6.776;2022-09-29T08:40:53;12.48;;;10.75;;
19867;SDS011;10096;51.112;6.776;2022-09-29T08:43:24;12.45;;;11.15;;
19867;SDS011;10096;51.112;6.776;2022-09-29T08:45:56;13.40;;;11.32;;
19867;SDS011;10096;51.112;6.776;2022-09-29T08:48:28;13.48;;;10.98;;
19867;SDS011;10096;51.112;6.776;2022-09-29T08:51:01;13.82;;;11.13;;
19867;SDS011;10096;51.112;6.776;2022-09-29T08:53:31;13.23;;;11.82;;
19867;SDS011;10096;51.112;6.776;2022-09-29T08:56:04;13.60;;;11.90;;
19867;SDS011;10096;51.112;6.776;2022-09-29T08:58:37;14.27;;;11.68;;
19867;SDS011;10096;51.112;6.776;2022-09-29T09:01:08;15.63;;;14.05;;
19867;SDS011;10096;51.112;6.776;2022-09-29T09:03:52;14.20;;;12.50;;
19867;SDS011;10096;51.112;6.776;2022-09-29T09:06:56;15.85;;;13.95;;
19867;SDS011;10096;51.112;6.776;2022-09-29T09:09:41;19.35;;;13.80;;
19867;SDS011;10096;51.112;6.776;2022-09-29T09:15:33;20.10;;;14.90;;
19867;SDS011;10096;51.112;6.776;2022-09-29T09:18:13;15.80;;;13.55;;
19867;SDS011;10096;51.112;6.776;2022-09-29T09:20:55;16.48;;;13.65;;
19867;SDS011;10096;51.112;6.776;2022-09-29T09:23:33;16.15;;;14.32;;
19867;SDS011;10096;51.112;6.776;2022-09-29T09:26:11;35.17;;;30.00;;
19867;SDS011;10096;51.112;6.776;2022-09-29T09:28:40;18.83;;;16.08;;
19867;SDS011;10096;51.112;6.776;2022-09-29T09:31:16;21.55;;;15.50;;
19867;SDS011;10096;51.112;6.776;2022-09-29T09:33:48;16.30;;;14.60;;
19867;SDS011;10096;51.112;6.776;2022-09-29T09:36:19;37.05;;;33.03;;
19867;SDS011;10096;51.112;6.776;2022-09-29T09:38:56;18.63;;;14.48;;
19867;SDS011;10096;51.112;6.776;2022-09-29T09:41:28;18.85;;;15.75;;
19867;SDS011;10096;51.112;6.776;2022-09-29T09:43:58;15.70;;;13.77;;
19867;SDS011;10096;51.112;6.776;2022-09-29T09:46:32;19.90;;;16.80;;
19867;SDS011;10096;51.112;6.776;2022-09-29T09:49:06;18.85;;;16.38;;
19867;SDS011;10096;51.112;6.776;2022-09-29T09:51:43;20.98;;;18.05;;
19867;SDS011;10096;51.112;6.776;2022-09-29T09:54:13;20.55;;;18.35;;
19867;SDS011;10096;51.112;6.776;2022-09-29T09:56:54;24.85;;;20.08;;
19867;SDS011;10096;51.112;6.776;2022-09-29T10:00:06;21.02;;;18.52;;
19867;SDS011;10096;51.112;6.776;2022-09-29T10:02:40;20.00;;;17.92;;
19867;SDS011;10096;51.112;6.776;2022-09-29T10:05:11;23.05;;;18.83;;
19867;SDS011;10096;51.112;6.776;2022-09-29T10:07:40;22.48;;;19.13;;
19867;SDS011;10096;51.112;6.776;2022-09-29T10:10:12;24.40;;;20.83;;
19867;SDS011;10096;51.112;6.776;2022-09-29T10:12:43;22.73;;;18.35;;
19867;SDS011;10096;51.112;6.776;2022-09-29T10:15:17;24.48;;;19.58;;
19867;SDS011;10096;51.112;6.776;2022-09-29T10:17:58;23.17;;;19.40;;
19867;SDS011;10096;51.112;6.776;2022-09-29T10:20:37;19.50;;;16.65;;
19867;SDS011;10096;51.112;6.776;2022-09-29T10:23:25;19.98;;;17.85;;
19867;SDS011;10096;51.112;6.776;2022-09-29T10:25:59;19.63;;;17.55;;
19867;SDS011;10096;51.112;6.776;2022-09-29T10:28:36;19.80;;;16.60;;
19867;SDS011;10096;51.112;6.776;2022-09-29T10:31:23;17.65;;;15.93;;
19867;SDS011;10096;51.112;6.776;2022-09-29T10:33:55;18.67;;;16.30;;
19867;SDS011;10096;51.112;6.776;2022-09-29T10:36:24;13.50;;;12.10;;
19867;SDS011;10096;51.112;6.776;2022-09-29T10:38:55;17.17;;;15.35;;
19867;SDS011;10096;51.112;6.776;2022-09-29T10:41:23;15.40;;;13.77;;
19867;SDS011;10096;51.112;6.776;2022-09-29T10:43:52;18.13;;;14.05;;
19867;SDS011;10096;51.112;6.776;2022-09-29T10:46:33;14.98;;;12.65;;
19867;SDS011;10096;51.112;6.776;2022-09-29T10:49:09;16.35;;;13.60;;
19867;SDS011;10096;51.112;6.776;2022-09-29T10:51:41;15.50;;;12.18;;
19867;SDS011;10096;51.112;6.776;2022-09-29T10:54:14;9.90;;;8.90;;
19867;SDS011;10096;51.112;6.776;2022-09-29T10:56:45;11.88;;;10.30;;
19867;SDS011;10096;51.112;6.776;2022-09-29T10:59:14;13.00;;;11.70;;
19867;SDS011;10096;51.112;6.776;2022-09-29T11:01:45;11.23;;;9.68;;
19867;SDS011;10096;51.112;6.776;2022-09-29T11:07:29;13.90;;;10.52;;
19867;SDS011;10096;51.112;6.776;2022-09-29T11:09:58;11.55;;;9.85;;
19867;SDS011;10096;51.112;6.776;2022-09-29T11:12:27;11.95;;;9.93;;
19867;SDS011;10096;51.112;6.776;2022-09-29T11:14:57;10.57;;;9.48;;
19867;SDS011;10096;51.112;6.776;2022-09-29T11:17:25;12.63;;;9.23;;
19867;SDS011;10096;51.112;6.776;2022-09-29T11:19:54;10.70;;;9.70;;
19867;SDS011;10096;51.112;6.776;2022-09-29T11:25:38;16.05;;;12.82;;
19867;SDS011;10096;51.112;6.776;2022-09-29T11:28:33;15.48;;;12.05;;
19867;SDS011;10096;51.112;6.776;2022-09-29T11:31:16;12.77;;;11.45;;
19867;SDS011;10096;51.112;6.776;2022-09-29T11:33:59;13.70;;;11.52;;
19867;SDS011;10096;51.112;6.776;2022-09-29T11:36:37;13.13;;;10.57;;
19867;SDS011;10096;51.112;6.776;2022-09-29T11:39:17;11.60;;;10.32;;
19867;SDS011;10096;51.112;6.776;2022-09-29T11:41:56;11.40;;;9.88;;
19867;SDS011;10096;51.112;6.776;2022-09-29T11:44:55;12.05;;;10.85;;
19867;SDS011;10096;51.112;6.776;2022-09-29T11:47:47;10.95;;;9.93;;
19867;SDS011;10096;51.112;6.776;2022-09-29T11:50:41;12.18;;;10.88;;
19867;SDS011;10096;51.112;6.776;2022-09-29T11:53:26;12.38;;;10.63;;
19867;SDS011;10096;51.112;6.776;2022-09-29T11:58:59;7.82;;;6.57;;
19867;SDS011;10096;51.112;6.776;2022-09-29T12:01:42;7.38;;;6.68;;
19867;SDS011;10096;51.112;6.776;2022-09-29T12:04:24;10.30;;;7.85;;
19867;SDS011;10096;51.112;6.776;2022-09-29T12:07:03;8.75;;;7.43;;
19867;SDS011;10096;51.112;6.776;2022-09-29T12:09:50;8.25;;;7.45;;
19867;SDS011;10096;51.112;6.776;2022-09-29T12:12:49;10.60;;;6.75;;
19867;SDS011;10096;51.112;6.776;2022-09-29T12:15:42;10.40;;;8.68;;
19867;SDS011;10096;51.112;6.776;2022-09-29T12:18:17;8.48;;;7.68;;
19867;SDS011;10096;51.112;6.776;2022-09-29T12:20:48;7.95;;;7.10;;
19867;SDS011;10096;51.112;6.776;2022-09-29T12:23:19;7.57;;;6.78;;
19867;SDS011;10096;51.112;6.776;2022-09-29T12:25:55;18.98;;;11.88;;
19867;SDS011;10096;51.112;6.776;2022-09-29T12:28:37;10.82;;;8.80;;
19867;SDS011;10096;51.112;6.776;2022-09-29T12:31:10;8.52;;;7.03;;
19867;SDS011;10096;51.112;6.776;2022-09-29T12:33:42;8.40;;;7.05;;
19867;SDS011;10096;51.112;6.776;2022-09-29T12:36:15;8.60;;;7.65;;
19867;SDS011;10096;51.112;6.776;2022-09-29T12:39:09;9.35;;;7.72;;
19867;SDS011;10096;51.112;6.776;2022-09-29T12:42:09;8.23;;;7.38;;
19867;SDS011;10096;51.112;6.776;2022-09-29T12:44:51;8.13;;;7.15;;
19867;SDS011;10096;51.112;6.776;2022-09-29T12:47:29;8.32;;;7.53;;
19867;SDS011;10096;51.112;6.776;2022-09-29T12:50:17;9.15;;;7.32;;
19867;SDS011;10096;51.112;6.776;2022-09-29T12:52:50;9.05;;;8.18;;
19867;SDS011;10096;51.112;6.776;2022-09-29T12:55:23;8.75;;;7.47;;
19867;SDS011;10096;51.112;6.776;2022-09-29T12:58:01;9.25;;;7.65;;
19867;SDS011;10096;51.112;6.776;2022-09-29T13:00:33;9.52;;;7.20;;
19867;SDS011;10096;51.112;6.776;2022-09-29T13:03:10;9.63;;;6.97;;
19867;SDS011;10096;51.112;6.776;2022-09-29T13:09:07;9.13;;;6.40;;
19867;SDS011;10096;51.112;6.776;2022-09-29T13:11:51;8.60;;;7.70;;
19867;SDS011;10096;51.112;6.776;2022-09-29T13:14:37;8.38;;;6.57;;
19867;SDS011;10096;51.112;6.776;2022-09-29T13:17:25;7.07;;;6.38;;
19867;SDS011;10096;51.112;6.776;2022-09-29T13:22:57;9.35;;;7.10;;
19867;SDS011;10096;51.112;6.776;2022-09-29T13:25:40;10.23;;;7.43;;
19867;SDS011;10096;51.112;6.776;2022-09-29T13:28:23;8.52;;;5.88;;
19867;SDS011;10096;51.112;6.776;2022-09-29T13:31:00;8.25;;;6.70;;
19867;SDS011;10096;51.112;6.776;2022-09-29T13:33:37;9.05;;;7.47;;
19867;SDS011;10096;51.112;6.776;2022-09-29T13:36:23;7.05;;;6.40;;
19867;SDS011;10096;51.112;6.776;2022-09-29T13:38:54;7.75;;;6.55;;
19867;SDS011;10096;51.112;6.776;2022-09-29T13:41:34;8.45;;;7.55;;
19867;SDS011;10096;51.112;6.776;2022-09-29T13:46:54;8.02;;;5.50;;
19867;SDS011;10096;51.112;6.776;2022-09-29T13:49:24;8.25;;;6.85;;
19867;SDS011;10096;51.112;6.776;2022-09-29T13:51:54;7.55;;;6.32;;
19867;SDS011;10096;51.112;6.776;2022-09-29T13:54:32;9.43;;;7.68;;
19867;SDS011;10096;51.112;6.776;2022-09-29T14:03:03;8.27;;;7.10;;
19867;SDS011;10096;51.112;6.776;2022-09-29T14:08:42;6.88;;;5.80;;
19867;SDS011;10096;51.112;6.776;2022-09-29T14:11:13;6.63;;;5.97;;
19867;SDS011;10096;51.112;6.776;2022-09-29T14:13:47;7.90;;;7.13;;
19867;SDS011;10096;51.112;6.776;2022-09-29T14:19:34;10.77;;;9.77;;
19867;SDS011;10096;51.112;6.776;2022-09-29T14:25:33;16.50;;;9.05;;
19867;SDS011;10096;51.112;6.776;2022-09-29T14:28:22;12.38;;;9.00;;
19867;SDS011;10096;51.112;6.776;2022-09-29T14:30:57;9.85;;;8.95;;
19867;SDS011;10096;51.112;6.776;2022-09-29T14:33:28;10.98;;;9.77;;
19867;SDS011;10096;51.112;6.776;2022-09-29T14:36:02;14.93;;;13.35;;
19867;SDS011;10096;51.112;6.776;2022-09-29T14:38:33;11.25;;;10.25;;
19867;SDS011;10096;51.112;6.776;2022-09-29T14:41:14;9.75;;;8.70;;
19867;SDS011;10096;51.112;6.776;2022-09-29T14:43:52;13.80;;;8.85;;
19867;SDS011;10096;51.112;6.776;2022-09-29T14:46:27;9.70;;;8.35;;
19867;SDS011;10096;51.112;6.776;2022-09-29T14:49:36;10.73;;;7.97;;
19867;SDS011;10096;51.112;6.776;2022-09-29T14:52:57;9.98;;;8.85;;
19867;SDS011;10096;51.112;6.776;2022-09-29T14:55:37;15.57;;;8.38;;
19867;SDS011;10096;51.112;6.776;2022-09-29T14:58:16;8.85;;;6.95;;
19867;SDS011;10096;51.112;6.776;2022-09-29T15:01:01;8.70;;;7.90;;
19867;SDS011;10096;51.112;6.776;2022-09-29T15:03:42;11.10;;;10.00;;
19867;SDS011;10096;51.112;6.776;2022-09-29T15:06:11;11.43;;;9.38;;
19867;SDS011;10096;51.112;6.776;2022-09-29T15:08:40;10.93;;;9.27;;
19867;SDS011;10096;51.112;6.776;2022-09-29T15:11:23;11.95;;;9.73;;
19867;SDS011;10096;51.112;6.776;2022-09-29T15:13:54;17.67;;;11.02;;
19867;SDS011;10096;51.112;6.776;2022-09-29T15:16:24;13.32;;;8.60;;
19867;SDS011;10096;51.112;6.776;2022-09-29T15:21:49;4.53;;;4.05;;
19867;SDS011;10096;51.112;6.776;2022-09-29T15:27:54;5.30;;;4.78;;
19867;SDS011;10096;51.112;6.776;2022-09-29T15:30:27;6.60;;;5.93;;
19867;SDS011;10096;51.112;6.776;2022-09-29T15:33:02;4.65;;;4.10;;
19867;SDS011;10096;51.112;6.776;2022-09-29T15:35:46;4.20;;;3.63;;
19867;SDS011;10096;51.112;6.776;2022-09-29T15:38:26;4.72;;;4.32;;
19867;SDS011;10096;51.112;6.776;2022-09-29T15:41:02;5.18;;;4.05;;
19867;SDS011;10096;51.112;6.776;2022-09-29T15:43:43;4.53;;;4.05;;
19867;SDS011;10096;51.112;6.776;2022-09-29T15:46:20;4.32;;;3.92;;
19867;SDS011;10096;51.112;6.776;2022-09-29T15:51:41;4.00;;;3.53;;
19867;SDS011;10096;51.112;6.776;2022-09-29T15:54:11;4.25;;;3.85;;
19867;SDS011;10096;51.112;6.776;2022-09-29T15:56:39;4.13;;;3.63;;
19867;SDS011;10096;51.112;6.776;2022-09-29T15:59:37;3.67;;;3.35;;